• Join FlightAware (Why Join?)
  • Login
  • US Flag 
10:13AM EDT


 

Airport Tracker/Info


-or-


 

Live Flight TrackerFlight Track Log ✈ EJA929 ✈ 01-Oct-2013 ✈ KDET - CYYC

Flight Track Log - Related Links

Times and Time Zones

All times are in EDT time to prevent confusion due to time zone crossing. See the EJA929 flight status page for this flight to view local times or setup timezone preferences in your user account.

Time Position Orientation Groundspeed Altitude Reporting Facility
EDT Latitude Longitude Course Direction KTS MPH feet Rate Location/Type
02:59PM 42.4308 -83.0314 333° Northwest 176 203 1,600  Level Cleveland Center
02:59PM 42.4419 -83.0392 333° Northwest 199 229 2,000 1,920 Climbing Cleveland Center
03:00PM 42.5019 -83.0503 352° North 218 251 4,400 2,760 Climbing Cleveland Center
03:00PM 42.5300 -83.0506 360° North 227 261 5,400 3,000 Climbing Cleveland Center
03:01PM 42.5786 -83.0553 356° North 230 265 7,500 2,580 Climbing Cleveland Center
03:01PM 42.5972 -83.0739 324° Northwest 235 270 8,300 2,100 Climbing Cleveland Center
03:02PM 42.6375 -83.1103 326° Northwest 252 290 9,700 1,680 Climbing Cleveland Center
03:03PM 42.7039 -83.1725 325° Northwest 290 334 11,400 1,560 Climbing Cleveland Center
03:04PM 42.7792 -83.2419 326° Northwest 318 366 13,000 1,440 Climbing Cleveland Center
03:05PM 42.8528 -83.3136 324° Northwest 331 381 14,400 1,500 Climbing Cleveland Center
03:06PM 42.9333 -83.4256 315° West 345 397 16,200 1,620 Climbing Cleveland Center
03:07PM 43.0042 -83.5242 315° West 363 418 17,800 1,500 Climbing Cleveland Center
03:08PM 43.0717 -83.6175 315° West 349 402 19,400 1,500 Climbing Cleveland Center
03:09PM 43.1394 -83.7086 316° Northwest 343 395 20,900 1,320 Climbing Cleveland Center
03:10PM 43.2089 -83.8061 314° West 356 410 22,200 1,320 Climbing Cleveland Center
03:11PM 43.2950 -83.9261 315° West 367 422 23,700 1,320 Climbing Cleveland Center
03:12PM 43.3736 -84.0372 314° West 382 440 25,000 1,140 Climbing Cleveland Center
03:13PM 43.4175 -84.1022 313° West 385 443 25,700 1,080 Climbing Minneapolis Center
03:14PM 43.4950 -84.2106 315° West 394 453 26,900 1,140 Climbing Minneapolis Center
03:15PM 43.5736 -84.3211 314° West 402 463 28,100 1,020 Climbing Minneapolis Center
03:16PM 43.6536 -84.4353 314° West 411 473 29,000 420 Climbing Minneapolis Center
03:17PM 43.7328 -84.5558 312° West 421 484 29,000 960 Level Minneapolis Center
03:18PM 43.8114 -84.7269 303° West 438 504 31,000 1,800 Climbing Minneapolis Center
03:19PM 43.8728 -84.8633 302° West 427 491 32,700 1,560 Climbing Minneapolis Center
03:20PM 43.9328 -84.9967 302° West 417 480 34,300 1,500 Climbing Minneapolis Center
03:21PM 43.9933 -85.1303 302° West 412 474 35,800 1,440 Climbing Minneapolis Center
03:22PM 44.0597 -85.2772 302° West 409 471 37,300 1,380 Climbing Minneapolis Center
03:23PM 44.1192 -85.4097 302° West 406 467 38,700 1,200 Climbing Minneapolis Center
03:24PM 44.1781 -85.5408 302° West 401 461 39,800 600 Climbing Minneapolis Center
03:25PM 44.2369 -85.6761 301° West 405 466 40,000 60 Climbing Minneapolis Center
03:26PM 44.2969 -85.8136 301° West 410 472 40,000  Level Minneapolis Center
03:27PM 44.3586 -85.9528 302° West 417 480 40,000  Level Minneapolis Center
03:28PM 44.4197 -86.0942 301° West 422 486 40,000  Level Minneapolis Center
03:29PM 44.4933 -86.2658 301° West 424 488 40,000  Level Minneapolis Center
03:31PM 44.5553 -86.4075 302° West 423 487 40,000  Level Minneapolis Center
03:32PM 44.6142 -86.5467 301° West 415 478 40,000  Level Minneapolis Center
03:33PM 44.6750 -86.6892 301° West 418 481 40,000  Level Minneapolis Center
03:34PM 44.7333 -86.8286 301° West 415 478 40,000  Level Minneapolis Center
03:35PM 44.7906 -86.9658 300° West 409 471 40,000  Level Minneapolis Center
03:36PM 44.8494 -87.1050 301° West 413 475 40,000  Level Minneapolis Center
03:37PM 44.9097 -87.2439 302° West 415 478 40,000  Level Minneapolis Center
03:38PM 44.9667 -87.3822 300° West 411 473 40,000  Level Minneapolis Center
03:39PM 45.0350 -87.5478 300° West 407 468 40,000  Level Minneapolis Center
03:40PM 45.0919 -87.6861 300° West 409 471 40,000  Level Minneapolis Center
03:41PM 45.1486 -87.8236 300° West 406 467 40,000  Level Minneapolis Center
03:42PM 45.2050 -87.9625 300° West 407 468 40,000  Level Minneapolis Center
03:43PM 45.2608 -88.1011 300° West 405 466 40,000  Level Minneapolis Center
03:44PM 45.3261 -88.2628 300° West 406 467 40,000  Level Minneapolis Center
03:45PM 45.3814 -88.4025 299° West 406 467 40,000  Level Minneapolis Center
03:46PM 45.4369 -88.5417 300° West 405 466 40,000  Level Minneapolis Center
03:47PM 45.4917 -88.6806 299° West 403 464 40,000  Level Minneapolis Center
03:48PM 45.5469 -88.8197 300° West 402 463 40,000  Level Minneapolis Center
03:49PM 45.6031 -88.9625 299° West 404 465 40,000  Level Minneapolis Center
03:50PM 45.6572 -89.1008 299° West 402 463 40,000  Level Minneapolis Center
03:51PM 45.7100 -89.2394 299° West 398 458 40,000  Level Minneapolis Center
03:52PM 45.7628 -89.3781 299° West 398 458 40,000  Level Minneapolis Center
03:53PM 45.8278 -89.5458 299° West 400 460 40,000  Level Minneapolis Center
03:54PM 45.8794 -89.6836 298° West 396 456 40,000  Level Minneapolis Center
03:55PM 45.9372 -89.8283 300° West 397 457 40,000  Level Minneapolis Center
03:56PM 45.9886 -89.9672 298° West 392 451 40,000  Level Minneapolis Center
03:57PM 46.0417 -90.1028 299° West 389 448 40,000  Level Minneapolis Center
03:58PM 46.0933 -90.2394 299° West 388 447 40,000  Level Minneapolis Center
03:59PM 46.1433 -90.3767 298° West 387 445 40,000  Level Minneapolis Center
04:00PM 46.1961 -90.5144 299° West 389 448 40,000  Level Minneapolis Center
04:01PM 46.2461 -90.6522 298° West 387 445 40,000  Level Minneapolis Center
04:02PM 46.3078 -90.8181 298° West 390 449 40,000  Level Minneapolis Center
04:03PM 46.3578 -90.9558 298° West 388 447 40,000  Level Minneapolis Center
04:04PM 46.4083 -91.0933 298° West 387 445 40,000  Level Minneapolis Center
04:05PM 46.4586 -91.2325 298° West 388 447 40,000  Level Minneapolis Center
04:07PM 46.5069 -91.3689 297° West 385 443 40,000  Level Minneapolis Center
04:08PM 46.5536 -91.5061 296° West 382 440 40,000  Level Minneapolis Center
04:09PM 46.6058 -91.6422 299° West 382 440 40,000  Level Minneapolis Center
04:10PM 46.6639 -91.7714 303° West 383 441 40,000  Level Minneapolis Center
04:11PM 46.7461 -91.9128 310° West 382 440 40,000  Level Minneapolis Center
04:12PM 46.8108 -92.0319 308° West 379 436 40,000  Level Minneapolis Center
04:13PM 46.8733 -92.1497 308° West 371 427 40,000  Level Minneapolis Center
04:14PM 46.9369 -92.2686 308° West 372 428 40,000  Level Minneapolis Center
04:15PM 47.0006 -92.3897 308° West 373 429 40,000  Level Minneapolis Center
04:16PM 47.0636 -92.5092 308° West 373 429 40,000  Level Minneapolis Center
04:17PM 47.1394 -92.6528 308° West 373 429 40,000  Level Minneapolis Center
04:18PM 47.2031 -92.7725 308° West 372 428 40,000  Level Minneapolis Center
04:19PM 47.2656 -92.8925 308° West 372 428 40,000  Level Minneapolis Center
04:20PM 47.3275 -93.0111 308° West 369 425 40,000  Level Minneapolis Center
04:21PM 47.3981 -93.1497 307° West 371 427 40,000  Level Minneapolis Center
04:22PM 47.4614 -93.2758 307° West 380 437 40,000  Level Minneapolis Center
04:23PM 47.5247 -93.3992 307° West 384 442 40,000  Level Minneapolis Center
04:24PM 47.5886 -93.5231 307° West 381 438 40,000  Level Minneapolis Center
04:25PM 47.6533 -93.6533 306° West 389 448 40,000  Level Minneapolis Center
04:26PM 47.7311 -93.8089 307° West 389 448 40,000  Level Minneapolis Center
04:27PM 47.7956 -93.9369 307° West 392 451 40,000  Level Minneapolis Center
04:28PM 47.8611 -94.0675 307° West 395 455 40,000  Level Minneapolis Center
04:29PM 47.9258 -94.2008 306° West 396 456 40,000  Level Minneapolis Center
04:30PM 47.9922 -94.3328 307° West 398 458 40,000  Level Minneapolis Center
04:31PM 48.0575 -94.4675 306° West 401 461 40,000  Level Minneapolis Center
04:32PM 48.1372 -94.6278 307° West 401 461 40,000  Level Minneapolis Center
04:33PM 48.2022 -94.7642 306° West 403 464 40,000  Level Minneapolis Center
04:34PM 48.2672 -94.8994 306° West 402 463 40,000  Level Minneapolis Center
04:35PM 48.3331 -95.0342 306° West 401 461 40,000  Level Minneapolis Center
04:36PM 48.3981 -95.1692 306° West 400 460 40,000  Level Minneapolis Center
04:38PM 48.4617 -95.3050 305° West 399 459 40,000  Level Minneapolis Center
04:39PM 48.5386 -95.4656 306° West 397 457 40,000  Level Minneapolis Center
04:40PM 48.5972 -95.5908 305° West 397 457 40,000  Level Minneapolis Center
04:41PM 48.6611 -95.7275 305° West 398 458 40,000  Level Minneapolis Center
04:42PM 48.7372 -95.8892 306° West 396 456 40,000  Level Minneapolis Center
04:43PM 48.8003 -96.0258 305° West 397 457 40,000  Level Minneapolis Center
04:44PM 48.8333 -96.1333 295° West 390 449 40,000  Level Winnipeg Center
04:45PM 48.9000 -96.2833 304° West 400 460 40,000  Level Winnipeg Center
04:46PM 48.9500 -96.4000 303° West 400 460 40,000  Level Winnipeg Center
04:47PM 49.0333 -96.5500 310° West 400 460 40,000  Level Winnipeg Center
04:48PM 49.1000 -96.6833 307° West 400 460 40,000  Level Winnipeg Center
04:49PM 49.1667 -96.8333 304° West 400 460 40,000  Level Winnipeg Center
04:50PM 49.2167 -96.9667 300° West 400 460 40,000  Level Winnipeg Center
04:51PM 49.2833 -97.1000 308° West 390 449 40,000  Level Winnipeg Center
04:52PM 49.3500 -97.2500 304° West 400 460 40,000  Level Winnipeg Center
04:53PM 49.4000 -97.3833 300° West 400 460 40,000  Level Winnipeg Center
04:54PM 49.4667 -97.5333 304° West 400 460 40,000  Level Winnipeg Center
04:55PM 49.5333 -97.6667 308° West 400 460 40,000  Level Winnipeg Center
04:56PM 49.6000 -97.8167 304° West 400 460 40,000  Level Winnipeg Center
04:57PM 49.6500 -97.9667 297° West 410 472 40,000  Level Winnipeg Center
04:58PM 49.7000 -98.1000 300° West 410 472 40,000  Level Winnipeg Center
04:59PM 49.7667 -98.2667 302° West 410 472 40,000  Level Winnipeg Center
05:00PM 49.8333 -98.4000 308° West 410 472 40,000  Level Winnipeg Center
05:01PM 49.9000 -98.5500 305° West 410 472 40,000  Level Winnipeg Center
05:02PM 49.9667 -98.7167 302° West 410 472 40,000  Level Winnipeg Center
05:03PM 50.0333 -98.8333 312° West 410 472 40,000  Level Winnipeg Center
05:04PM 50.1000 -99.0000 302° West 410 472 40,000  Level Winnipeg Center
05:05PM 50.1500 -99.1333 300° West 410 472 40,000  Level Winnipeg Center
05:06PM 50.2000 -99.3000 295° West 400 460 40,000  Level Winnipeg Center
05:07PM 50.2667 -99.4333 308° West 400 460 40,000  Level Winnipeg Center
05:08PM 50.3333 -99.5833 305° West 400 460 40,000  Level Winnipeg Center
05:09PM 50.3833 -99.7500 295° West 400 460 40,000  Level Winnipeg Center
05:10PM 50.4333 -99.9000 298° West 390 449 40,000  Level Winnipeg Center
05:11PM 50.4500 -100.0667 279° West 390 449 40,000  Level Winnipeg Center
05:12PM 50.4833 -100.2333 288° West 390 449 40,000  Level Winnipeg Center
05:13PM 50.5167 -100.3833 289° West 390 449 40,000  Level Winnipeg Center
05:14PM 50.5500 -100.5667 286° West 390 449 40,000  Level Winnipeg Center
05:15PM 50.5667 -100.7333 279° West 400 460 40,000  Level Winnipeg Center
05:16PM 50.5833 -100.9000 279° West 400 460 40,000  Level Winnipeg Center
05:17PM 50.6167 -101.0833 286° West 400 460 40,000  Level Winnipeg Center
05:18PM 50.6333 -101.2333 280° West 400 460 40,000  Level Winnipeg Center
05:19PM 50.6667 -101.4333 285° West 400 460 40,000  Level Winnipeg Center
05:20PM 50.6833 -101.5833 280° West 400 460 40,000  Level Winnipeg Center
05:21PM 50.7167 -101.7500 288° West 400 460 40,000  Level Winnipeg Center
05:22PM 50.7500 -101.9333 286° West 400 460 40,000  Level Winnipeg Center
05:23PM 50.7667 -102.1000 279° West 400 460 40,000  Level Winnipeg Center
05:24PM 50.8000 -102.2667 288° West 400 460 40,000  Level Winnipeg Center
05:25PM 50.8167 -102.4500 278° West 400 460 40,000  Level Winnipeg Center
05:26PM 50.8333 -102.6333 278° West 400 460 40,000  Level Winnipeg Center
05:27PM 50.8333 -102.8333 270° West 410 472 40,000  Level Winnipeg Center
05:28PM 50.8667 -102.9833 289° West 410 472 40,000  Level Winnipeg Center
05:29PM 50.8667 -103.1500 270° West 410 472 40,000  Level Winnipeg Center
05:30PM 50.9000 -103.3333 286° West 410 472 40,000  Level Winnipeg Center
05:31PM 50.9000 -103.5333 270° West 400 460 40,000  Level Winnipeg Center
05:32PM 50.9167 -103.6833 280° West 400 460 40,000  Level Winnipeg Center
05:33PM 50.9333 -103.8833 278° West 400 460 40,000  Level Winnipeg Center
05:34PM 50.9500 -104.0667 278° West 400 460 40,000  Level Winnipeg Center
05:35PM 50.9500 -104.2333 270° West 400 460 40,000  Level Winnipeg Center
05:36PM 50.9833 -104.4167 286° West 410 472 40,000  Level Winnipeg Center
05:37PM 50.9833 -104.5833 270° West 410 472 40,000  Level Winnipeg Center
05:38PM 51.0000 -104.7667 278° West 410 472 40,000  Level Winnipeg Center
05:39PM 51.0167 -104.9333 279° West 410 472 40,000  Level Winnipeg Center
05:40PM 51.0167 -105.1167 270° West 410 472 40,000  Level Winnipeg Center
05:41PM 51.0333 -105.3167 278° West 410 472 40,000  Level Winnipeg Center
05:42PM 51.0333 -105.4667 270° West 410 472 40,000  Level Winnipeg Center
05:43PM 51.0667 -105.6667 285° West 410 472 40,000  Level Winnipeg Center
05:44PM 51.0667 -105.8500 270° West 410 472 40,000  Level Winnipeg Center
05:45PM 51.0833 -106.0333 278° West 410 472 40,000  Level Winnipeg Center
05:46PM 51.0833 -106.2000 270° West 410 472 40,000  Level Winnipeg Center
05:47PM 51.1000 -106.4000 278° West 410 472 40,000  Level Winnipeg Center
05:48PM 51.1000 -106.5833 270° West 410 472 40,000  Level Winnipeg Center
05:49PM 51.1167 -106.7667 278° West 420 483 40,000  Level Winnipeg Center
05:50PM 51.1333 -106.9333 279° West 420 483 40,000  Level Winnipeg Center
05:51PM 51.1500 -107.1333 278° West 420 483 40,000  Level Winnipeg Center
05:52PM 51.1667 -107.3167 278° West 420 483 40,000  Level Winnipeg Center
05:53PM 51.1667 -107.5000 270° West 420 483 40,000  Level Winnipeg Center
05:54PM 51.1667 -107.7000 270° West 420 483 40,000  Level Winnipeg Center
05:55PM 51.1667 -107.8833 270° West 430 495 40,000  Level Winnipeg Center
05:56PM 51.1833 -108.0500 279° West 430 495 40,000  Level Winnipeg Center
05:57PM 51.1833 -108.2333 270° West 430 495 40,000  Level Winnipeg Center
05:58PM 51.1833 -108.4167 270° West 420 483 40,000  Level Edmonton Center
05:59PM 51.2000 -108.6000 278° West 430 495 40,000  Level Edmonton Center
06:00PM 51.2000 -108.7833 270° West 420 483 40,000  Level Edmonton Center
06:01PM 51.2167 -108.9500 279° West 420 483 40,000  Level Edmonton Center
06:02PM 51.2333 -109.1667 277° West 430 495 40,000  Level Edmonton Center
06:03PM 51.2167 -109.3500 262° West 430 495 40,000  Level Edmonton Center
06:04PM 51.2333 -109.5500 278° West 430 495 40,000  Level Edmonton Center
06:05PM 51.2333 -109.7333 270° West 430 495 40,000  Level Edmonton Center
06:06PM 51.2500 -109.9333 278° West 430 495 40,000  Level Edmonton Center
06:07PM 51.2500 -110.1167 270° West 430 495 40,000  Level Edmonton Center
06:08PM 51.2667 -110.3333 277° West 430 495 40,000  Level Edmonton Center
06:09PM 51.2500 -110.5167 262° West 430 495 40,000 -60 Level Edmonton Center
06:10PM 51.2500 -110.7167 270° West 430 495 39,900 -900 Descending Edmonton Center
06:11PM 51.2667 -110.9000 278° West 440 506 38,300 -1,740 Descending Edmonton Center
06:12PM 51.2667 -111.1167 270° West 440 506 36,500 -2,040 Descending Edmonton Center
06:13PM 51.2833 -111.3500 277° West 450 518 34,200 -2,220 Descending Winnipeg Center
06:14PM 51.2833 -111.5333 270° West 450 518 32,100 -2,340 Descending Edmonton Center
06:15PM 51.2667 -111.7167 262° West 450 518 29,700 -2,400 Descending Edmonton Center
06:16PM 51.2667 -111.9000 270° West 450 518 27,300 -2,460 Descending Edmonton Center
06:17PM 51.2833 -112.1167 277° West 450 518 24,800 -2,400 Descending Edmonton Center
06:18PM 51.2833 -112.3167 270° West 430 495 22,500 -2,340 Descending Edmonton Center
06:19PM 51.2667 -112.5000 262° West 420 483 20,200 -2,280 Descending Edmonton Center
06:20PM 51.2500 -112.6667 261° West 400 460 18,000 -2,100 Descending Edmonton Center
06:21PM 51.2500 -112.8167 270° West 380 437 16,100 -1,860 Descending Edmonton Center
06:22PM 51.2333 -112.9833 261° West 340 391 14,300 -1,680 Descending Edmonton Center
06:23PM 51.2333 -113.1167 270° West 310 357 12,800 -1,200 Descending Edmonton Center
06:24PM 51.2000 -113.2167 242° Southwest 270 311 11,900 -1,500 Descending Edmonton Center
06:25PM 51.1833 -113.3500 259° West 270 311 9,900 -1,980 Descending Edmonton Center
06:26PM 51.1667 -113.4500 255° West 260 299 8,000 -1,020 Descending Edmonton Center
06:27PM 51.1563 -113.6236 254° West  Level FlightAware Approximate
06:30PM 51.0833 -113.9000 163° South 210 242 4,800  Level Edmonton Center
06:31PM 51.1139 -114.0203 298° West  Level Estimated
06:31PM 51.0833 -113.9500 298° West 120 138 4,500  Level Edmonton Center
06:32PM 51.0667 -114.0000 242° Southwest 120 138 3,900 -480 Descending Edmonton Center
06:33PM 51.0667 -114.0500 270° West 220 253 3,600 -300 Descending Edmonton Center
06:34PM 51.1000 -114.0167 163° South  Level FlightAware Approximate
06:35PM 51.1139 -114.0203 163° South  Level Estimated